createdAt,value
2023-04-19T00:00:11.853Z,17.76
2023-04-19T00:02:43.921Z,17.78
2023-04-19T00:05:22.995Z,17.82
2023-04-19T00:07:53.827Z,17.80
2023-04-19T00:10:24.352Z,17.81
2023-04-19T00:12:55.687Z,17.79
2023-04-19T00:15:26.509Z,17.81
2023-04-19T00:17:56.898Z,17.84
2023-04-19T00:20:27.329Z,17.86
2023-04-19T00:22:59.883Z,17.86
2023-04-19T00:25:32.160Z,17.80
2023-04-19T00:28:02.599Z,17.79
2023-04-19T00:30:33.828Z,17.78
2023-04-19T00:33:04.190Z,17.77
2023-04-19T00:35:35.468Z,17.76
2023-04-19T00:38:05.825Z,17.75
2023-04-19T00:40:36.490Z,17.74
2023-04-19T00:43:08.183Z,17.74
2023-04-19T00:45:39.378Z,17.72
2023-04-19T00:48:10.530Z,17.72
2023-04-19T00:50:42.001Z,17.72
2023-04-19T00:53:12.990Z,17.71
2023-04-19T00:55:44.618Z,17.72
2023-04-19T00:58:15.216Z,17.73
2023-04-19T01:00:46.921Z,17.72
2023-04-19T01:03:18.526Z,17.72
2023-04-19T01:05:50.123Z,17.71
2023-04-19T01:08:20.586Z,17.72
2023-04-19T01:10:51.131Z,17.71
2023-04-19T01:13:22.609Z,17.73
2023-04-19T01:15:53.134Z,17.74
2023-04-19T01:18:26.069Z,17.72
2023-04-19T01:20:57.084Z,17.74
2023-04-19T01:23:27.838Z,17.73
2023-04-19T01:25:59.281Z,17.72
2023-04-19T01:28:31.341Z,17.72
2023-04-19T01:31:01.968Z,17.75
2023-04-19T01:33:32.509Z,17.74
2023-04-19T01:36:03.174Z,17.76
2023-04-19T01:38:33.918Z,17.76
2023-04-19T01:41:04.657Z,17.76
2023-04-19T01:43:35.079Z,17.74
2023-04-19T01:46:06.120Z,17.77
2023-04-19T01:48:36.525Z,17.76
2023-04-19T01:51:07.650Z,17.77
2023-04-19T01:53:38.171Z,17.78
2023-04-19T01:56:08.731Z,17.80
2023-04-19T01:58:40.196Z,17.79
2023-04-19T02:01:14.097Z,17.80
2023-04-19T02:03:44.859Z,17.81
2023-04-19T02:06:16.284Z,17.81
2023-04-19T02:08:47.603Z,17.79
2023-04-19T02:11:18.334Z,17.79
2023-04-19T02:13:50.173Z,17.81
2023-04-19T02:16:20.699Z,17.84
2023-04-19T02:18:53.673Z,17.82
2023-04-19T02:21:24.677Z,17.83
2023-04-19T02:23:55.061Z,17.83
2023-04-19T02:26:26.180Z,17.83
2023-04-19T02:28:56.500Z,17.85
2023-04-19T02:31:27.943Z,17.86
2023-04-19T02:33:58.358Z,17.84
2023-04-19T02:36:29.657Z,17.85
2023-04-19T02:39:00.875Z,17.86
2023-04-19T02:41:31.637Z,17.87
2023-04-19T02:44:04.089Z,17.87
2023-04-19T02:46:34.757Z,17.92
2023-04-19T02:49:05.457Z,18.00
2023-04-19T02:51:35.891Z,18.05
2023-04-19T02:54:07.062Z,18.09
2023-04-19T02:56:37.495Z,18.15
2023-04-19T02:59:08.502Z,18.19
2023-04-19T03:01:38.991Z,18.20
2023-04-19T03:04:10.380Z,18.24
2023-04-19T03:06:43.657Z,18.28
2023-04-19T03:09:15.082Z,18.30
2023-04-19T03:11:45.548Z,18.37
2023-04-19T03:14:16.438Z,18.42
2023-04-19T03:16:47.460Z,18.45
2023-04-19T03:19:18.175Z,18.50
2023-04-19T03:21:53.097Z,18.51
2023-04-19T03:24:32.208Z,18.50
2023-04-19T03:27:13.273Z,18.51
2023-04-19T03:29:47.267Z,18.53
2023-04-19T03:32:18.620Z,18.52
2023-04-19T03:34:48.816Z,18.50
2023-04-19T03:37:19.435Z,18.55
2023-04-19T03:39:50.049Z,18.56
2023-04-19T03:42:28.761Z,18.57
2023-04-19T03:45:07.475Z,18.60
2023-04-19T03:47:42.895Z,18.63
2023-04-19T03:50:13.802Z,18.65
2023-04-19T03:52:48.803Z,18.64
2023-04-19T03:55:19.990Z,18.67
2023-04-19T03:57:50.826Z,18.67
2023-04-19T04:00:29.439Z,18.71
2023-04-19T04:03:03.340Z,18.68
2023-04-19T04:05:34.936Z,18.67
2023-04-19T04:08:05.445Z,18.71
2023-04-19T04:10:36.712Z,18.71
2023-04-19T04:13:07.668Z,18.75
2023-04-19T04:15:47.479Z,18.75
2023-04-19T04:18:19.883Z,18.77
2023-04-19T04:20:51.272Z,18.79
2023-04-19T04:23:23.355Z,18.81
2023-04-19T04:26:06.758Z,18.83
2023-04-19T04:28:53.765Z,18.85
2023-04-19T04:31:24.228Z,18.84
2023-04-19T04:33:56.622Z,18.89
2023-04-19T04:36:31.281Z,18.90
2023-04-19T04:39:03.393Z,18.91
2023-04-19T04:41:33.847Z,18.94
2023-04-19T04:44:12.488Z,18.94
2023-04-19T04:46:45.761Z,18.90
2023-04-19T04:49:21.598Z,18.93
2023-04-19T04:51:52.774Z,18.96
2023-04-19T04:54:24.692Z,18.96
2023-04-19T04:56:56.220Z,19.03
2023-04-19T04:59:26.697Z,19.04
2023-04-19T05:01:57.092Z,19.11
2023-04-19T05:04:28.532Z,19.14
2023-04-19T05:06:59.332Z,19.14
2023-04-19T05:09:30.853Z,19.14
2023-04-19T05:12:01.574Z,19.11
2023-04-19T05:14:33.353Z,19.21
2023-04-19T05:17:07.246Z,19.23
2023-04-19T05:19:38.789Z,19.18
2023-04-19T05:22:10.548Z,19.17
2023-04-19T05:24:42.796Z,19.19
2023-04-19T05:27:14.309Z,19.23
2023-04-19T05:29:48.676Z,19.23
2023-04-19T05:32:19.232Z,19.29
2023-04-19T05:34:56.022Z,19.33
2023-04-19T05:37:26.443Z,19.30
2023-04-19T05:39:57.002Z,19.38
2023-04-19T05:42:28.368Z,19.38
2023-04-19T05:47:42.459Z,19.37
2023-04-19T05:50:13.788Z,19.41
2023-04-19T05:52:50.695Z,19.42
2023-04-19T05:55:23.186Z,19.45
2023-04-19T05:57:53.937Z,19.43
2023-04-19T06:00:27.982Z,19.49
2023-04-19T06:03:05.921Z,19.51
2023-04-19T06:05:37.063Z,19.48
2023-04-19T06:08:08.671Z,19.52
2023-04-19T06:10:51.906Z,19.52
2023-04-19T06:13:27.307Z,19.54
2023-04-19T06:15:57.749Z,19.53
2023-04-19T06:18:29.002Z,19.54
2023-04-19T06:20:59.447Z,19.54
2023-04-19T06:23:30.785Z,19.53
2023-04-19T06:26:01.309Z,19.53
2023-04-19T06:28:31.569Z,19.54
2023-04-19T06:31:02.031Z,19.53
2023-04-19T06:33:32.545Z,19.55
2023-04-19T06:36:02.966Z,19.56
2023-04-19T06:38:33.400Z,19.55
2023-04-19T06:41:04.948Z,19.58
2023-04-19T06:43:35.370Z,19.59
2023-04-19T06:46:06.470Z,19.59
2023-04-19T06:48:37.750Z,19.58
2023-04-19T06:51:08.601Z,19.59
2023-04-19T06:53:39.523Z,19.59
2023-04-19T06:56:11.548Z,19.62
2023-04-19T06:58:42.029Z,19.61
2023-04-19T07:01:13.428Z,19.62
2023-04-19T07:03:45.095Z,19.62
2023-04-19T07:06:15.581Z,19.63
2023-04-19T07:08:50.111Z,19.64
2023-04-19T07:17:08.085Z,19.69
2023-04-19T07:19:39.077Z,19.69
2023-04-19T07:22:09.629Z,19.72
2023-04-19T07:24:41.822Z,19.73
2023-04-19T07:27:12.858Z,19.76
2023-04-19T07:29:43.075Z,19.79
2023-04-19T07:32:15.212Z,19.80
2023-04-19T07:34:47.109Z,19.82
2023-04-19T07:37:17.787Z,19.81
2023-04-19T07:39:48.080Z,19.82
2023-04-19T07:42:18.628Z,19.86
2023-04-19T07:44:49.932Z,19.85
2023-04-19T07:47:20.449Z,19.87
2023-04-19T07:49:55.157Z,19.88
2023-04-19T07:52:25.521Z,19.90
2023-04-19T07:54:55.942Z,19.89
2023-04-19T07:57:26.933Z,19.91
2023-04-19T07:59:59.577Z,19.91
2023-04-19T08:02:30.473Z,19.92
2023-04-19T08:05:01.324Z,19.92
2023-04-19T08:07:32.271Z,19.94
2023-04-19T08:10:02.748Z,19.94
2023-04-19T08:12:40.558Z,19.94
2023-04-19T08:15:49.078Z,19.96
2023-04-19T08:18:06.536Z,19.97
2023-04-19T08:20:38.244Z,19.97
2023-04-19T08:23:20.481Z,19.96
2023-04-19T08:25:52.468Z,19.98
2023-04-19T08:28:22.824Z,19.98
2023-04-19T08:30:53.862Z,19.96
2023-04-19T08:33:24.304Z,19.97
2023-04-19T08:35:54.911Z,19.97
2023-04-19T08:38:25.495Z,19.96
2023-04-19T08:40:57.741Z,19.97
2023-04-19T08:43:34.890Z,19.98
2023-04-19T08:48:50.370Z,19.97
2023-04-19T08:51:21.535Z,20.00
2023-04-19T08:53:52.596Z,20.02
2023-04-19T08:56:34.855Z,20.03
2023-04-19T09:01:44.544Z,20.03
2023-04-19T09:04:31.494Z,20.03
2023-04-19T09:07:05.706Z,20.04
2023-04-19T09:09:45.683Z,20.05
2023-04-19T09:12:22.436Z,20.07
2023-04-19T09:17:26.825Z,20.08
2023-04-19T09:19:57.603Z,20.07
2023-04-19T09:22:29.081Z,20.07
2023-04-19T09:25:34.325Z,20.10
2023-04-19T09:27:52.800Z,20.11
2023-04-19T09:30:32.278Z,20.11
2023-04-19T09:33:07.733Z,20.13
2023-04-19T09:35:49.740Z,20.14
2023-04-19T09:38:20.650Z,20.15
2023-04-19T09:40:52.377Z,20.15
2023-04-19T09:43:55.887Z,20.14
2023-04-19T09:46:37.103Z,20.15
2023-04-19T09:49:30.685Z,20.13
2023-04-19T09:52:08.291Z,20.12
2023-04-19T09:54:39.776Z,20.11
2023-04-19T09:57:11.061Z,20.11
2023-04-19T09:59:41.583Z,20.11
2023-04-19T10:02:15.151Z,20.11
2023-04-19T10:10:11.660Z,20.10
2023-04-19T10:12:59.137Z,20.10
2023-04-19T10:18:11.351Z,20.10
2023-04-19T10:20:52.026Z,20.08
2023-04-19T10:23:23.974Z,20.09
2023-04-19T10:25:59.408Z,20.09
2023-04-19T10:28:33.033Z,20.08
2023-04-19T10:31:05.969Z,20.08
2023-04-19T10:33:40.315Z,20.08
2023-04-19T10:36:19.035Z,20.08
2023-04-19T10:38:57.259Z,20.08
2023-04-19T10:42:00.886Z,20.07
2023-04-19T10:44:31.573Z,20.06
2023-04-19T10:47:02.888Z,20.06
2023-04-19T10:49:33.729Z,20.07
2023-04-19T10:52:04.982Z,20.06
2023-04-19T10:54:39.013Z,20.05
2023-04-19T10:57:12.626Z,20.05
2023-04-19T10:59:45.455Z,20.05
2023-04-19T11:02:29.760Z,20.06
2023-04-19T11:05:03.048Z,20.05
2023-04-19T11:07:40.462Z,20.04
2023-04-19T11:10:12.056Z,20.04
2023-04-19T11:12:46.791Z,20.03
2023-04-19T11:15:17.335Z,20.03
2023-04-19T11:18:11.433Z,20.03
2023-04-19T11:20:45.547Z,20.03
2023-04-19T11:23:19.609Z,20.02
2023-04-19T11:25:54.659Z,20.03
2023-04-19T11:28:25.657Z,20.03
2023-04-19T11:30:57.247Z,20.02
2023-04-19T11:33:28.861Z,20.01
2023-04-19T11:35:59.190Z,20.01
2023-04-19T11:38:33.467Z,20.01
2023-04-19T11:41:04.969Z,20.01
2023-04-19T11:43:46.831Z,20.00
2023-04-19T11:46:17.648Z,19.99
2023-04-19T11:48:55.467Z,19.99
2023-04-19T11:51:26.424Z,19.99
2023-04-19T11:53:56.966Z,19.99
2023-04-19T11:56:27.984Z,19.98
2023-04-19T11:59:00.271Z,19.98
2023-04-19T12:01:32.396Z,19.97
2023-04-19T12:04:03.202Z,19.96
2023-04-19T12:06:34.118Z,19.95
2023-04-19T12:09:13.722Z,19.95
2023-04-19T12:11:51.571Z,19.94
2023-04-19T12:14:24.476Z,19.94
2023-04-19T12:17:15.293Z,19.93
2023-04-19T12:19:48.171Z,19.93
2023-04-19T12:22:30.538Z,19.93
2023-04-19T12:25:01.065Z,19.92
2023-04-19T12:27:32.130Z,19.90
2023-04-19T12:30:02.517Z,19.90
2023-04-19T12:32:32.810Z,19.89
2023-04-19T12:35:04.068Z,19.89
2023-04-19T12:37:34.521Z,19.89
2023-04-19T12:40:05.601Z,19.89
2023-04-19T12:42:35.978Z,19.88
2023-04-19T12:45:06.533Z,19.86
2023-04-19T12:47:36.933Z,19.88
2023-04-19T12:50:08.002Z,19.89
2023-04-19T12:52:38.661Z,19.87
2023-04-19T12:55:09.869Z,19.87
2023-04-19T12:57:41.268Z,19.86
2023-04-19T13:00:12.606Z,19.86
2023-04-19T13:02:43.406Z,19.87
2023-04-19T13:05:14.541Z,19.86
2023-04-19T13:07:44.825Z,19.84
2023-04-19T13:10:15.249Z,19.85
2023-04-19T13:12:45.808Z,19.85
2023-04-19T13:15:16.237Z,19.85
2023-04-19T13:17:47.194Z,19.84
2023-04-19T13:20:17.698Z,19.84
2023-04-19T13:22:49.377Z,19.83
2023-04-19T13:25:20.001Z,19.82
2023-04-19T13:27:50.479Z,19.81
2023-04-19T13:30:20.833Z,19.82
2023-04-19T13:32:53.361Z,19.81
2023-04-19T13:35:24.050Z,19.80
2023-04-19T13:37:54.468Z,19.81
2023-04-19T13:40:25.007Z,19.81
2023-04-19T13:42:58.229Z,19.80
2023-04-19T13:45:28.672Z,19.80
2023-04-19T13:47:59.013Z,19.81
2023-04-19T13:50:29.688Z,19.79
2023-04-19T13:53:01.063Z,19.79
2023-04-19T13:55:31.912Z,19.80
2023-04-19T13:58:02.538Z,19.78
2023-04-19T14:00:33.224Z,19.78
2023-04-19T14:03:04.049Z,19.77
2023-04-19T14:05:34.322Z,19.78
2023-04-19T14:08:05.357Z,19.78
2023-04-19T14:10:36.503Z,19.77
2023-04-19T14:13:07.107Z,19.76
2023-04-19T14:15:37.572Z,19.76
2023-04-19T14:18:08.161Z,19.77
2023-04-19T14:20:38.914Z,19.76
2023-04-19T14:23:09.963Z,19.75
2023-04-19T14:25:40.390Z,19.75
2023-04-19T14:28:10.797Z,19.75
2023-04-19T14:30:42.775Z,19.75
2023-04-19T14:33:13.479Z,19.75
2023-04-19T14:35:44.400Z,19.73
2023-04-19T14:38:14.796Z,19.72
2023-04-19T14:40:46.127Z,19.73
2023-04-19T14:43:19.695Z,19.73
2023-04-19T14:45:51.944Z,19.74
2023-04-19T14:48:22.495Z,19.72
2023-04-19T14:50:53.042Z,19.72
2023-04-19T14:53:23.298Z,19.72
2023-04-19T14:55:53.986Z,19.71
2023-04-19T14:58:24.420Z,19.72
2023-04-19T15:00:56.332Z,19.72
2023-04-19T15:03:27.424Z,19.72
2023-04-19T15:05:58.112Z,19.71
2023-04-19T15:08:30.773Z,19.72
2023-04-19T15:11:02.154Z,19.71
2023-04-19T15:13:33.307Z,19.71
2023-04-19T15:16:05.427Z,19.70
2023-04-19T15:18:36.080Z,19.71
2023-04-19T15:21:07.338Z,19.70
2023-04-19T15:23:37.877Z,19.70
2023-04-19T15:26:08.281Z,19.69
2023-04-19T15:28:39.967Z,19.69
2023-04-19T15:31:11.764Z,19.69
2023-04-19T15:33:42.277Z,19.69
2023-04-19T15:36:12.756Z,19.69
2023-04-19T15:38:44.234Z,19.69
2023-04-19T15:41:14.741Z,19.68
2023-04-19T15:43:46.045Z,19.68
2023-04-19T15:46:17.708Z,19.68
2023-04-19T15:48:49.803Z,19.68
2023-04-19T15:51:21.384Z,19.67
2023-04-19T15:53:51.914Z,19.67
2023-04-19T15:56:23.215Z,19.67
2023-04-19T15:58:54.079Z,19.66
2023-04-19T16:01:24.907Z,19.66
2023-04-19T16:03:55.472Z,19.66
2023-04-19T16:06:25.986Z,19.66
2023-04-19T16:08:57.109Z,19.66
2023-04-19T16:11:28.059Z,19.66
2023-04-19T16:13:58.258Z,19.64
2023-04-19T16:16:32.400Z,19.65
2023-04-19T16:19:03.108Z,19.64
2023-04-19T16:21:34.110Z,19.63
2023-04-19T16:24:04.455Z,19.63
2023-04-19T16:26:35.245Z,19.62
2023-04-19T16:29:05.915Z,19.62
2023-04-19T16:31:37.115Z,19.62
2023-04-19T16:34:07.560Z,19.62
2023-04-19T16:36:38.119Z,19.63
2023-04-19T16:39:08.556Z,19.63
2023-04-19T16:41:39.303Z,19.61
2023-04-19T16:44:09.910Z,19.61
2023-04-19T16:46:40.180Z,19.61
2023-04-19T16:49:10.638Z,19.61
2023-04-19T16:51:41.047Z,19.61
2023-04-19T16:54:11.461Z,19.60
2023-04-19T16:56:42.210Z,19.60
2023-04-19T16:59:12.565Z,19.59
2023-04-19T17:01:43.174Z,19.59
2023-04-19T17:04:14.015Z,19.59
2023-04-19T17:06:45.133Z,19.58
2023-04-19T17:09:15.836Z,19.59
2023-04-19T17:11:46.389Z,19.57
2023-04-19T17:14:17.350Z,19.57
2023-04-19T17:16:48.082Z,19.58
2023-04-19T17:19:19.290Z,19.57
2023-04-19T17:21:49.718Z,19.57
2023-04-19T17:24:19.984Z,19.57
2023-04-19T17:26:51.365Z,19.56
2023-04-19T17:29:21.685Z,19.56
2023-04-19T17:31:52.375Z,19.56
2023-04-19T17:34:23.175Z,19.54
2023-04-19T17:36:53.908Z,19.55
2023-04-19T17:39:24.353Z,19.55
2023-04-19T17:41:55.852Z,19.55
2023-04-19T17:44:26.937Z,19.54
2023-04-19T17:46:57.418Z,19.54
2023-04-19T17:49:28.524Z,19.53
2023-04-19T17:51:58.913Z,19.53
2023-04-19T17:54:29.136Z,19.52
2023-04-19T17:57:00.868Z,19.52
2023-04-19T17:59:32.187Z,19.52
2023-04-19T18:02:04.034Z,19.51
2023-04-19T18:04:34.838Z,19.52
2023-04-19T18:07:06.163Z,19.51
2023-04-19T18:09:36.673Z,19.51
2023-04-19T18:12:07.309Z,19.50
2023-04-19T18:14:38.085Z,19.51
2023-04-19T18:17:09.559Z,19.49
2023-04-19T18:19:39.967Z,19.48
2023-04-19T18:22:10.725Z,19.49
2023-04-19T18:24:45.351Z,19.49
2023-04-19T18:27:16.609Z,19.49
2023-04-19T18:29:47.046Z,19.48
2023-04-19T18:32:17.634Z,19.48
2023-04-19T18:34:48.965Z,19.48
2023-04-19T18:37:19.906Z,19.48
2023-04-19T18:39:50.357Z,19.48
2023-04-19T18:42:20.993Z,19.47
2023-04-19T18:44:54.178Z,19.47
2023-04-19T18:47:27.609Z,19.47
2023-04-19T18:50:05.238Z,19.46
2023-04-19T18:52:39.368Z,19.46
2023-04-19T18:55:10.253Z,19.45
2023-04-19T18:57:40.602Z,19.46
2023-04-19T19:00:12.601Z,19.45
2023-04-19T19:02:44.028Z,19.44
2023-04-19T19:05:17.271Z,19.44
2023-04-19T19:07:48.454Z,19.44
2023-04-19T19:10:21.810Z,19.44
2023-04-19T19:12:54.168Z,19.43
2023-04-19T19:15:24.449Z,19.43
2023-04-19T19:17:55.495Z,19.43
2023-04-19T19:20:26.077Z,19.42
2023-04-19T19:22:57.371Z,19.41
2023-04-19T19:25:27.917Z,19.41
2023-04-19T19:30:35.240Z,19.41
2023-04-19T19:33:06.405Z,19.41
2023-04-19T19:35:36.778Z,19.40
2023-04-19T19:38:07.035Z,19.40
2023-04-19T19:40:53.545Z,19.40
2023-04-19T19:43:28.705Z,19.40
2023-04-19T19:45:59.167Z,19.40
2023-04-19T19:48:30.478Z,19.39
2023-04-19T19:51:31.349Z,19.39
2023-04-19T19:53:52.085Z,19.39
2023-04-19T19:56:24.402Z,19.39
2023-04-19T19:58:56.417Z,19.37
2023-04-19T20:01:28.507Z,19.35
2023-04-19T20:03:59.374Z,19.35
2023-04-19T20:09:02.827Z,19.35
2023-04-19T20:11:33.260Z,19.35
2023-04-19T20:14:04.230Z,19.35
2023-04-19T20:16:35.443Z,19.34
2023-04-19T20:19:11.170Z,19.34
2023-04-19T20:21:42.434Z,19.34
2023-04-19T20:24:13.593Z,19.34
2023-04-19T20:26:44.359Z,19.34
2023-04-19T20:29:14.863Z,19.33
2023-04-19T20:31:46.387Z,19.32
2023-04-19T20:34:16.940Z,19.32
2023-04-19T20:36:50.315Z,19.32
2023-04-19T20:39:21.735Z,19.31
2023-04-19T20:41:53.155Z,19.31
2023-04-19T20:44:24.375Z,19.33
2023-04-19T20:46:55.375Z,19.31
2023-04-19T20:49:25.759Z,19.31
2023-04-19T20:51:56.116Z,19.29
2023-04-19T20:54:26.755Z,19.29
2023-04-19T20:57:04.705Z,19.28
2023-04-19T20:59:35.517Z,19.27
2023-04-19T21:02:06.578Z,19.27
2023-04-19T21:04:37.680Z,19.26
2023-04-19T21:07:08.524Z,19.25
2023-04-19T21:09:39.059Z,19.26
2023-04-19T21:12:10.333Z,19.25
2023-04-19T21:14:40.674Z,19.25
2023-04-19T21:17:11.257Z,19.23
2023-04-19T21:19:41.453Z,19.23
2023-04-19T21:22:12.493Z,19.23
2023-04-19T21:24:42.921Z,19.24
2023-04-19T21:27:13.331Z,19.22
2023-04-19T21:29:43.711Z,19.22
2023-04-19T21:32:14.163Z,19.21
2023-04-19T21:34:45.627Z,19.22
2023-04-19T21:37:16.823Z,19.22
2023-04-19T21:39:47.221Z,19.21
2023-04-19T21:42:17.707Z,19.22
2023-04-19T21:44:48.326Z,19.20
2023-04-19T21:47:18.716Z,19.20
2023-04-19T21:49:49.226Z,19.20
2023-04-19T21:52:19.954Z,19.20
2023-04-19T21:54:51.276Z,19.20
2023-04-19T21:57:25.974Z,19.20
2023-04-19T21:59:56.794Z,19.19
2023-04-19T22:02:27.270Z,19.20
2023-04-19T22:05:01.669Z,19.19
2023-04-19T22:07:32.736Z,19.19
2023-04-19T22:10:03.281Z,19.18
2023-04-19T22:12:38.886Z,19.18
2023-04-19T22:15:16.435Z,19.19
2023-04-19T22:17:47.570Z,19.18
2023-04-19T22:20:19.303Z,19.18
2023-04-19T22:22:49.680Z,19.18
2023-04-19T22:25:20.408Z,19.18
2023-04-19T22:27:50.851Z,19.18
2023-04-19T22:30:21.322Z,19.18
2023-04-19T22:32:51.837Z,19.18
2023-04-19T22:35:23.213Z,19.18
2023-04-19T22:37:54.466Z,19.17
2023-04-19T22:40:25.069Z,19.17
2023-04-19T22:42:55.527Z,19.18
2023-04-19T22:45:26.491Z,19.18
2023-04-19T22:47:57.316Z,19.17
2023-04-19T22:50:27.919Z,19.18
2023-04-19T22:52:58.369Z,19.18
2023-04-19T22:55:29.114Z,19.16
2023-04-19T22:57:59.506Z,19.16
2023-04-19T23:00:30.344Z,19.19
2023-04-19T23:03:01.103Z,19.22
2023-04-19T23:05:32.468Z,19.25
2023-04-19T23:08:06.119Z,19.26
2023-04-19T23:10:39.601Z,19.28
2023-04-19T23:13:11.928Z,19.29
2023-04-19T23:15:42.392Z,19.31
2023-04-19T23:18:13.146Z,19.34
2023-04-19T23:20:43.761Z,19.34
2023-04-19T23:23:14.344Z,19.35
2023-04-19T23:25:44.967Z,19.37
2023-04-19T23:28:15.372Z,19.38
2023-04-19T23:30:45.821Z,19.40
2023-04-19T23:33:16.211Z,19.42
2023-04-19T23:35:46.606Z,19.44
2023-04-19T23:38:17.642Z,19.43
2023-04-19T23:40:48.171Z,19.46
2023-04-19T23:43:18.547Z,19.46
2023-04-19T23:45:48.964Z,19.47
2023-04-19T23:48:19.391Z,19.48
2023-04-19T23:50:49.646Z,19.50
2023-04-19T23:53:20.307Z,19.51
2023-04-19T23:55:50.878Z,19.50
2023-04-19T23:58:21.384Z,19.52
